sensor_id;sensor_type;location;lat;lon;timestamp;P1;durP1;ratioP1;P2;durP2;ratioP2
8704;SDS011;4389;41.932;25.904;2022-11-21T00:00:30;46.07;;;8.40;;
8704;SDS011;4389;41.932;25.904;2022-11-21T00:02:59;36.60;;;7.43;;
8704;SDS011;4389;41.932;25.904;2022-11-21T00:05:27;36.73;;;9.00;;
8704;SDS011;4389;41.932;25.904;2022-11-21T00:07:54;40.30;;;7.47;;
8704;SDS011;4389;41.932;25.904;2022-11-21T00:10:22;33.37;;;7.50;;
8704;SDS011;4389;41.932;25.904;2022-11-21T00:12:52;37.43;;;7.27;;
8704;SDS011;4389;41.932;25.904;2022-11-21T00:15:20;35.33;;;7.43;;
8704;SDS011;4389;41.932;25.904;2022-11-21T00:17:47;35.13;;;8.00;;
8704;SDS011;4389;41.932;25.904;2022-11-21T00:20:16;27.73;;;8.37;;
8704;SDS011;4389;41.932;25.904;2022-11-21T00:22:43;35.83;;;7.80;;
8704;SDS011;4389;41.932;25.904;2022-11-21T00:25:10;25.03;;;6.67;;
8704;SDS011;4389;41.932;25.904;2022-11-21T00:27:38;31.90;;;6.53;;
8704;SDS011;4389;41.932;25.904;2022-11-21T00:30:05;25.70;;;6.13;;
8704;SDS011;4389;41.932;25.904;2022-11-21T00:32:34;22.87;;;5.47;;
8704;SDS011;4389;41.932;25.904;2022-11-21T00:35:01;27.00;;;6.93;;
8704;SDS011;4389;41.932;25.904;2022-11-21T00:37:30;24.90;;;5.73;;
8704;SDS011;4389;41.932;25.904;2022-11-21T00:39:57;22.57;;;5.33;;
8704;SDS011;4389;41.932;25.904;2022-11-21T00:42:24;22.80;;;5.17;;
8704;SDS011;4389;41.932;25.904;2022-11-21T00:44:51;24.40;;;6.20;;
8704;SDS011;4389;41.932;25.904;2022-11-21T00:47:17;27.63;;;5.53;;
8704;SDS011;4389;41.932;25.904;2022-11-21T00:49:44;33.90;;;6.50;;
8704;SDS011;4389;41.932;25.904;2022-11-21T00:52:11;28.37;;;6.50;;
8704;SDS011;4389;41.932;25.904;2022-11-21T00:54:39;17.27;;;4.73;;
8704;SDS011;4389;41.932;25.904;2022-11-21T00:57:06;26.43;;;6.43;;
8704;SDS011;4389;41.932;25.904;2022-11-21T00:59:33;33.33;;;5.40;;
8704;SDS011;4389;41.932;25.904;2022-11-21T01:02:00;22.53;;;6.37;;
8704;SDS011;4389;41.932;25.904;2022-11-21T01:04:29;28.87;;;6.77;;
8704;SDS011;4389;41.932;25.904;2022-11-21T01:06:56;19.73;;;5.43;;
8704;SDS011;4389;41.932;25.904;2022-11-21T01:09:23;25.00;;;6.10;;
8704;SDS011;4389;41.932;25.904;2022-11-21T01:11:52;27.90;;;5.70;;
8704;SDS011;4389;41.932;25.904;2022-11-21T01:14:18;26.20;;;5.57;;
8704;SDS011;4389;41.932;25.904;2022-11-21T01:16:45;25.67;;;8.27;;
8704;SDS011;4389;41.932;25.904;2022-11-21T01:19:13;29.03;;;6.57;;
8704;SDS011;4389;41.932;25.904;2022-11-21T01:21:40;22.70;;;6.13;;
8704;SDS011;4389;41.932;25.904;2022-11-21T01:24:08;23.83;;;6.10;;
8704;SDS011;4389;41.932;25.904;2022-11-21T01:26:36;26.00;;;5.67;;
8704;SDS011;4389;41.932;25.904;2022-11-21T01:29:04;23.73;;;6.00;;
8704;SDS011;4389;41.932;25.904;2022-11-21T01:31:33;25.13;;;5.30;;
8704;SDS011;4389;41.932;25.904;2022-11-21T01:34:00;30.37;;;6.90;;
8704;SDS011;4389;41.932;25.904;2022-11-21T01:36:28;32.60;;;6.90;;
8704;SDS011;4389;41.932;25.904;2022-11-21T01:38:57;29.67;;;7.03;;
8704;SDS011;4389;41.932;25.904;2022-11-21T01:41:26;29.37;;;6.70;;
8704;SDS011;4389;41.932;25.904;2022-11-21T01:43:55;30.73;;;6.37;;
8704;SDS011;4389;41.932;25.904;2022-11-21T01:46:24;32.77;;;6.03;;
8704;SDS011;4389;41.932;25.904;2022-11-21T01:48:52;26.43;;;5.73;;
8704;SDS011;4389;41.932;25.904;2022-11-21T01:51:24;26.57;;;6.60;;
8704;SDS011;4389;41.932;25.904;2022-11-21T01:53:57;31.77;;;6.23;;
8704;SDS011;4389;41.932;25.904;2022-11-21T01:56:27;27.60;;;6.87;;
8704;SDS011;4389;41.932;25.904;2022-11-21T01:58:58;28.43;;;6.10;;
8704;SDS011;4389;41.932;25.904;2022-11-21T02:01:29;40.20;;;6.10;;
8704;SDS011;4389;41.932;25.904;2022-11-21T02:03:56;32.90;;;7.17;;
8704;SDS011;4389;41.932;25.904;2022-11-21T02:06:28;31.43;;;5.17;;
8704;SDS011;4389;41.932;25.904;2022-11-21T02:08:56;26.97;;;6.73;;
8704;SDS011;4389;41.932;25.904;2022-11-21T02:11:26;36.07;;;6.80;;
8704;SDS011;4389;41.932;25.904;2022-11-21T02:13:58;38.07;;;7.17;;
8704;SDS011;4389;41.932;25.904;2022-11-21T02:16:25;30.47;;;7.33;;
8704;SDS011;4389;41.932;25.904;2022-11-21T02:18:57;32.10;;;7.60;;
8704;SDS011;4389;41.932;25.904;2022-11-21T02:21:28;31.90;;;6.93;;
8704;SDS011;4389;41.932;25.904;2022-11-21T02:24:03;32.30;;;6.73;;
8704;SDS011;4389;41.932;25.904;2022-11-21T02:26:38;31.90;;;7.53;;
8704;SDS011;4389;41.932;25.904;2022-11-21T02:29:06;34.50;;;8.13;;
8704;SDS011;4389;41.932;25.904;2022-11-21T02:31:33;36.17;;;7.03;;
8704;SDS011;4389;41.932;25.904;2022-11-21T02:34:00;35.60;;;8.50;;
8704;SDS011;4389;41.932;25.904;2022-11-21T02:36:30;39.37;;;7.57;;
8704;SDS011;4389;41.932;25.904;2022-11-21T02:39:04;36.00;;;7.07;;
8704;SDS011;4389;41.932;25.904;2022-11-21T02:41:32;44.00;;;7.30;;
8704;SDS011;4389;41.932;25.904;2022-11-21T02:44:04;48.60;;;8.17;;
8704;SDS011;4389;41.932;25.904;2022-11-21T02:46:34;35.87;;;7.93;;
8704;SDS011;4389;41.932;25.904;2022-11-21T02:49:02;48.17;;;8.67;;
8704;SDS011;4389;41.932;25.904;2022-11-21T02:51:33;38.90;;;7.10;;
8704;SDS011;4389;41.932;25.904;2022-11-21T02:54:00;30.90;;;7.57;;
8704;SDS011;4389;41.932;25.904;2022-11-21T02:56:27;37.93;;;6.40;;
8704;SDS011;4389;41.932;25.904;2022-11-21T02:58:53;37.53;;;7.40;;
8704;SDS011;4389;41.932;25.904;2022-11-21T03:01:22;45.63;;;7.33;;
8704;SDS011;4389;41.932;25.904;2022-11-21T03:03:49;41.37;;;8.37;;
8704;SDS011;4389;41.932;25.904;2022-11-21T03:06:15;56.57;;;8.67;;
8704;SDS011;4389;41.932;25.904;2022-11-21T03:08:42;40.00;;;8.23;;
8704;SDS011;4389;41.932;25.904;2022-11-21T03:11:09;45.17;;;7.83;;
8704;SDS011;4389;41.932;25.904;2022-11-21T03:13:36;38.83;;;7.60;;
8704;SDS011;4389;41.932;25.904;2022-11-21T03:16:03;39.17;;;8.17;;
8704;SDS011;4389;41.932;25.904;2022-11-21T03:18:31;46.13;;;9.47;;
8704;SDS011;4389;41.932;25.904;2022-11-21T03:20:58;47.93;;;9.20;;
8704;SDS011;4389;41.932;25.904;2022-11-21T03:23:25;49.90;;;8.57;;
8704;SDS011;4389;41.932;25.904;2022-11-21T03:25:52;41.37;;;7.37;;
8704;SDS011;4389;41.932;25.904;2022-11-21T03:28:18;39.27;;;8.43;;
8704;SDS011;4389;41.932;25.904;2022-11-21T03:30:45;45.73;;;8.20;;
8704;SDS011;4389;41.932;25.904;2022-11-21T03:33:12;47.33;;;8.87;;
8704;SDS011;4389;41.932;25.904;2022-11-21T03:35:41;50.90;;;8.77;;
8704;SDS011;4389;41.932;25.904;2022-11-21T03:38:08;47.97;;;8.67;;
8704;SDS011;4389;41.932;25.904;2022-11-21T03:40:34;46.77;;;9.50;;
8704;SDS011;4389;41.932;25.904;2022-11-21T03:43:02;27.90;;;6.07;;
8704;SDS011;4389;41.932;25.904;2022-11-21T03:45:30;18.40;;;4.07;;
8704;SDS011;4389;41.932;25.904;2022-11-21T03:47:57;17.73;;;3.83;;
8704;SDS011;4389;41.932;25.904;2022-11-21T03:50:24;23.13;;;3.90;;
8704;SDS011;4389;41.932;25.904;2022-11-21T03:52:52;13.30;;;3.10;;
8704;SDS011;4389;41.932;25.904;2022-11-21T03:55:19;13.10;;;2.60;;
8704;SDS011;4389;41.932;25.904;2022-11-21T03:57:46;19.87;;;3.77;;
8704;SDS011;4389;41.932;25.904;2022-11-21T04:00:14;17.10;;;3.50;;
8704;SDS011;4389;41.932;25.904;2022-11-21T04:02:41;16.50;;;3.50;;
8704;SDS011;4389;41.932;25.904;2022-11-21T04:05:08;16.40;;;3.30;;
8704;SDS011;4389;41.932;25.904;2022-11-21T04:07:35;15.27;;;3.60;;
8704;SDS011;4389;41.932;25.904;2022-11-21T04:10:03;21.97;;;3.93;;
8704;SDS011;4389;41.932;25.904;2022-11-21T04:12:31;16.83;;;3.33;;
8704;SDS011;4389;41.932;25.904;2022-11-21T04:14:57;20.33;;;4.20;;
8704;SDS011;4389;41.932;25.904;2022-11-21T04:17:24;37.37;;;16.07;;
8704;SDS011;4389;41.932;25.904;2022-11-21T04:19:51;19.67;;;5.63;;
8704;SDS011;4389;41.932;25.904;2022-11-21T04:22:18;17.67;;;4.23;;
8704;SDS011;4389;41.932;25.904;2022-11-21T04:24:45;17.43;;;4.47;;
8704;SDS011;4389;41.932;25.904;2022-11-21T04:27:13;12.23;;;3.97;;
8704;SDS011;4389;41.932;25.904;2022-11-21T04:29:40;17.83;;;4.13;;
8704;SDS011;4389;41.932;25.904;2022-11-21T04:32:07;16.03;;;4.87;;
8704;SDS011;4389;41.932;25.904;2022-11-21T04:34:33;24.53;;;5.13;;
8704;SDS011;4389;41.932;25.904;2022-11-21T04:37:00;21.57;;;4.50;;
8704;SDS011;4389;41.932;25.904;2022-11-21T04:39:27;24.03;;;5.10;;
8704;SDS011;4389;41.932;25.904;2022-11-21T04:41:54;29.10;;;5.70;;
8704;SDS011;4389;41.932;25.904;2022-11-21T04:44:22;31.40;;;5.00;;
8704;SDS011;4389;41.932;25.904;2022-11-21T04:46:49;23.50;;;5.57;;
8704;SDS011;4389;41.932;25.904;2022-11-21T04:49:17;32.57;;;6.20;;
8704;SDS011;4389;41.932;25.904;2022-11-21T04:51:44;22.43;;;5.63;;
8704;SDS011;4389;41.932;25.904;2022-11-21T04:54:11;23.73;;;5.90;;
8704;SDS011;4389;41.932;25.904;2022-11-21T04:56:37;30.93;;;7.13;;
8704;SDS011;4389;41.932;25.904;2022-11-21T04:59:04;36.00;;;7.13;;
8704;SDS011;4389;41.932;25.904;2022-11-21T05:01:32;32.00;;;6.93;;
8704;SDS011;4389;41.932;25.904;2022-11-21T05:03:59;32.33;;;7.70;;
8704;SDS011;4389;41.932;25.904;2022-11-21T05:06:26;28.90;;;6.70;;
8704;SDS011;4389;41.932;25.904;2022-11-21T05:08:53;40.50;;;8.20;;
8704;SDS011;4389;41.932;25.904;2022-11-21T05:11:20;39.33;;;7.07;;
8704;SDS011;4389;41.932;25.904;2022-11-21T05:14:04;41.97;;;6.87;;
8704;SDS011;4389;41.932;25.904;2022-11-21T05:16:32;39.70;;;7.63;;
8704;SDS011;4389;41.932;25.904;2022-11-21T05:19:00;28.00;;;6.27;;
8704;SDS011;4389;41.932;25.904;2022-11-21T05:21:27;32.17;;;7.60;;
8704;SDS011;4389;41.932;25.904;2022-11-21T05:23:53;41.63;;;7.77;;
8704;SDS011;4389;41.932;25.904;2022-11-21T05:26:20;28.47;;;6.90;;
8704;SDS011;4389;41.932;25.904;2022-11-21T05:28:47;31.73;;;6.40;;
8704;SDS011;4389;41.932;25.904;2022-11-21T05:31:14;22.17;;;6.30;;
8704;SDS011;4389;41.932;25.904;2022-11-21T05:33:42;25.20;;;5.33;;
8704;SDS011;4389;41.932;25.904;2022-11-21T05:36:09;28.27;;;7.43;;
8704;SDS011;4389;41.932;25.904;2022-11-21T05:38:36;21.23;;;5.37;;
8704;SDS011;4389;41.932;25.904;2022-11-21T05:41:03;24.33;;;4.67;;
8704;SDS011;4389;41.932;25.904;2022-11-21T05:43:29;18.73;;;3.80;;
8704;SDS011;4389;41.932;25.904;2022-11-21T05:46:10;20.53;;;4.57;;
8704;SDS011;4389;41.932;25.904;2022-11-21T05:48:37;14.27;;;3.70;;
8704;SDS011;4389;41.932;25.904;2022-11-21T05:51:06;17.87;;;3.97;;
8704;SDS011;4389;41.932;25.904;2022-11-21T05:53:33;25.30;;;5.27;;
8704;SDS011;4389;41.932;25.904;2022-11-21T05:56:01;21.40;;;4.00;;
8704;SDS011;4389;41.932;25.904;2022-11-21T05:58:29;26.33;;;4.93;;
8704;SDS011;4389;41.932;25.904;2022-11-21T06:00:56;29.27;;;7.10;;
8704;SDS011;4389;41.932;25.904;2022-11-21T06:03:23;32.47;;;10.40;;
8704;SDS011;4389;41.932;25.904;2022-11-21T06:05:57;23.70;;;6.97;;
8704;SDS011;4389;41.932;25.904;2022-11-21T06:08:26;23.90;;;5.80;;
8704;SDS011;4389;41.932;25.904;2022-11-21T06:10:53;20.07;;;5.43;;
8704;SDS011;4389;41.932;25.904;2022-11-21T06:13:20;16.77;;;6.00;;
8704;SDS011;4389;41.932;25.904;2022-11-21T06:15:57;19.70;;;4.93;;
8704;SDS011;4389;41.932;25.904;2022-11-21T06:18:26;23.63;;;6.57;;
8704;SDS011;4389;41.932;25.904;2022-11-21T06:20:53;21.00;;;6.23;;
8704;SDS011;4389;41.932;25.904;2022-11-21T06:23:27;21.87;;;6.43;;
8704;SDS011;4389;41.932;25.904;2022-11-21T06:25:57;21.40;;;5.87;;
8704;SDS011;4389;41.932;25.904;2022-11-21T06:28:24;19.77;;;5.57;;
8704;SDS011;4389;41.932;25.904;2022-11-21T06:30:51;16.20;;;5.10;;
8704;SDS011;4389;41.932;25.904;2022-11-21T06:33:18;19.27;;;5.87;;
8704;SDS011;4389;41.932;25.904;2022-11-21T06:35:46;24.80;;;5.43;;
8704;SDS011;4389;41.932;25.904;2022-11-21T06:38:12;19.40;;;5.83;;
8704;SDS011;4389;41.932;25.904;2022-11-21T06:40:44;25.60;;;5.47;;
8704;SDS011;4389;41.932;25.904;2022-11-21T06:43:11;18.77;;;4.70;;
8704;SDS011;4389;41.932;25.904;2022-11-21T06:45:38;24.33;;;5.40;;
8704;SDS011;4389;41.932;25.904;2022-11-21T06:48:05;23.27;;;5.57;;
8704;SDS011;4389;41.932;25.904;2022-11-21T06:50:32;24.20;;;5.50;;
8704;SDS011;4389;41.932;25.904;2022-11-21T06:52:59;20.20;;;5.10;;
8704;SDS011;4389;41.932;25.904;2022-11-21T06:55:26;25.93;;;5.23;;
8704;SDS011;4389;41.932;25.904;2022-11-21T06:57:57;21.43;;;6.07;;
8704;SDS011;4389;41.932;25.904;2022-11-21T07:00:24;26.07;;;4.93;;
8704;SDS011;4389;41.932;25.904;2022-11-21T07:02:52;21.47;;;5.30;;
8704;SDS011;4389;41.932;25.904;2022-11-21T07:05:19;21.23;;;4.53;;
8704;SDS011;4389;41.932;25.904;2022-11-21T07:07:46;21.27;;;5.73;;
8704;SDS011;4389;41.932;25.904;2022-11-21T07:10:13;17.53;;;5.07;;
8704;SDS011;4389;41.932;25.904;2022-11-21T07:12:40;19.93;;;4.63;;
8704;SDS011;4389;41.932;25.904;2022-11-21T07:15:25;19.27;;;5.60;;
8704;SDS011;4389;41.932;25.904;2022-11-21T07:17:52;20.37;;;5.13;;
8704;SDS011;4389;41.932;25.904;2022-11-21T07:20:19;25.07;;;5.73;;
8704;SDS011;4389;41.932;25.904;2022-11-21T07:22:46;22.27;;;4.77;;
8704;SDS011;4389;41.932;25.904;2022-11-21T07:25:13;13.77;;;4.73;;
8704;SDS011;4389;41.932;25.904;2022-11-21T07:27:40;25.20;;;5.03;;
8704;SDS011;4389;41.932;25.904;2022-11-21T07:30:07;24.40;;;6.30;;
8704;SDS011;4389;41.932;25.904;2022-11-21T07:32:36;26.73;;;4.80;;
8704;SDS011;4389;41.932;25.904;2022-11-21T07:35:03;22.03;;;4.97;;
8704;SDS011;4389;41.932;25.904;2022-11-21T07:37:30;29.73;;;5.27;;
8704;SDS011;4389;41.932;25.904;2022-11-21T07:39:57;25.50;;;5.03;;
8704;SDS011;4389;41.932;25.904;2022-11-21T07:42:24;25.50;;;4.77;;
8704;SDS011;4389;41.932;25.904;2022-11-21T07:44:51;17.00;;;5.50;;
8704;SDS011;4389;41.932;25.904;2022-11-21T07:47:18;20.70;;;4.00;;
8704;SDS011;4389;41.932;25.904;2022-11-21T07:49:46;24.97;;;4.43;;
8704;SDS011;4389;41.932;25.904;2022-11-21T07:52:13;20.83;;;5.33;;
8704;SDS011;4389;41.932;25.904;2022-11-21T07:54:40;18.03;;;4.53;;
8704;SDS011;4389;41.932;25.904;2022-11-21T07:57:07;19.73;;;3.57;;
8704;SDS011;4389;41.932;25.904;2022-11-21T07:59:34;19.00;;;3.67;;
8704;SDS011;4389;41.932;25.904;2022-11-21T08:02:01;17.70;;;3.67;;
8704;SDS011;4389;41.932;25.904;2022-11-21T08:04:28;13.27;;;3.60;;
8704;SDS011;4389;41.932;25.904;2022-11-21T08:06:56;13.97;;;3.13;;
8704;SDS011;4389;41.932;25.904;2022-11-21T08:09:26;15.83;;;3.50;;
8704;SDS011;4389;41.932;25.904;2022-11-21T08:11:53;19.97;;;3.73;;
8704;SDS011;4389;41.932;25.904;2022-11-21T08:14:20;13.70;;;3.43;;
8704;SDS011;4389;41.932;25.904;2022-11-21T08:16:47;16.27;;;3.10;;
8704;SDS011;4389;41.932;25.904;2022-11-21T08:19:17;17.13;;;4.10;;
8704;SDS011;4389;41.932;25.904;2022-11-21T08:21:44;18.80;;;3.50;;
8704;SDS011;4389;41.932;25.904;2022-11-21T08:24:13;14.20;;;3.30;;
8704;SDS011;4389;41.932;25.904;2022-11-21T08:26:41;14.27;;;3.47;;
8704;SDS011;4389;41.932;25.904;2022-11-21T08:29:09;13.77;;;3.33;;
8704;SDS011;4389;41.932;25.904;2022-11-21T08:31:36;17.50;;;3.20;;
8704;SDS011;4389;41.932;25.904;2022-11-21T08:34:04;14.53;;;4.40;;
8704;SDS011;4389;41.932;25.904;2022-11-21T08:36:31;12.33;;;4.10;;
8704;SDS011;4389;41.932;25.904;2022-11-21T08:38:58;17.13;;;3.30;;
8704;SDS011;4389;41.932;25.904;2022-11-21T08:41:26;11.60;;;3.47;;
8704;SDS011;4389;41.932;25.904;2022-11-21T08:44:11;14.20;;;3.83;;
8704;SDS011;4389;41.932;25.904;2022-11-21T08:46:38;19.30;;;3.80;;
8704;SDS011;4389;41.932;25.904;2022-11-21T08:49:05;11.23;;;3.53;;
8704;SDS011;4389;41.932;25.904;2022-11-21T08:51:33;10.27;;;3.03;;
8704;SDS011;4389;41.932;25.904;2022-11-21T08:54:00;9.43;;;2.80;;
8704;SDS011;4389;41.932;25.904;2022-11-21T08:56:30;10.67;;;3.33;;
8704;SDS011;4389;41.932;25.904;2022-11-21T08:58:57;15.13;;;3.67;;
8704;SDS011;4389;41.932;25.904;2022-11-21T09:01:23;13.40;;;3.60;;
8704;SDS011;4389;41.932;25.904;2022-11-21T09:03:50;12.47;;;2.97;;
8704;SDS011;4389;41.932;25.904;2022-11-21T09:06:17;15.67;;;3.50;;
8704;SDS011;4389;41.932;25.904;2022-11-21T09:08:44;11.90;;;2.70;;
8704;SDS011;4389;41.932;25.904;2022-11-21T09:11:13;10.47;;;2.73;;
8704;SDS011;4389;41.932;25.904;2022-11-21T09:13:42;12.83;;;2.40;;
8704;SDS011;4389;41.932;25.904;2022-11-21T09:16:29;7.87;;;2.63;;
8704;SDS011;4389;41.932;25.904;2022-11-21T09:19:13;11.77;;;2.50;;
8704;SDS011;4389;41.932;25.904;2022-11-21T09:21:40;6.90;;;1.97;;
8704;SDS011;4389;41.932;25.904;2022-11-21T09:24:06;11.60;;;2.37;;
8704;SDS011;4389;41.932;25.904;2022-11-21T09:26:33;10.43;;;2.43;;
8704;SDS011;4389;41.932;25.904;2022-11-21T09:29:01;6.60;;;1.83;;
8704;SDS011;4389;41.932;25.904;2022-11-21T09:31:28;11.27;;;1.80;;
8704;SDS011;4389;41.932;25.904;2022-11-21T09:33:55;11.53;;;2.20;;
8704;SDS011;4389;41.932;25.904;2022-11-21T09:36:22;9.10;;;2.13;;
8704;SDS011;4389;41.932;25.904;2022-11-21T09:38:50;11.30;;;2.37;;
8704;SDS011;4389;41.932;25.904;2022-11-21T09:41:20;4.37;;;1.60;;
8704;SDS011;4389;41.932;25.904;2022-11-21T09:44:17;4.77;;;1.60;;
8704;SDS011;4389;41.932;25.904;2022-11-21T09:46:54;6.60;;;2.13;;
8704;SDS011;4389;41.932;25.904;2022-11-21T09:49:28;6.47;;;2.33;;
8704;SDS011;4389;41.932;25.904;2022-11-21T09:52:07;3.70;;;2.10;;
8704;SDS011;4389;41.932;25.904;2022-11-21T09:54:38;3.70;;;1.90;;
8704;SDS011;4389;41.932;25.904;2022-11-21T09:57:11;8.57;;;2.07;;
8704;SDS011;4389;41.932;25.904;2022-11-21T09:59:44;5.77;;;2.07;;
8704;SDS011;4389;41.932;25.904;2022-11-21T10:02:14;8.07;;;2.27;;
8704;SDS011;4389;41.932;25.904;2022-11-21T10:04:42;6.20;;;1.63;;
8704;SDS011;4389;41.932;25.904;2022-11-21T10:07:11;7.77;;;1.97;;
8704;SDS011;4389;41.932;25.904;2022-11-21T10:09:46;6.00;;;1.77;;
8704;SDS011;4389;41.932;25.904;2022-11-21T10:12:32;7.97;;;2.63;;
8704;SDS011;4389;41.932;25.904;2022-11-21T10:15:12;6.53;;;2.00;;
8704;SDS011;4389;41.932;25.904;2022-11-21T10:17:50;4.53;;;1.60;;
8704;SDS011;4389;41.932;25.904;2022-11-21T10:20:42;3.80;;;1.60;;
8704;SDS011;4389;41.932;25.904;2022-11-21T10:23:40;8.60;;;1.50;;
8704;SDS011;4389;41.932;25.904;2022-11-21T10:26:21;4.33;;;1.13;;
8704;SDS011;4389;41.932;25.904;2022-11-21T10:28:59;5.70;;;1.40;;
8704;SDS011;4389;41.932;25.904;2022-11-21T10:31:37;6.73;;;2.03;;
8704;SDS011;4389;41.932;25.904;2022-11-21T10:34:07;4.50;;;3.07;;
8704;SDS011;4389;41.932;25.904;2022-11-21T10:36:38;8.87;;;2.73;;
8704;SDS011;4389;41.932;25.904;2022-11-21T10:39:11;5.57;;;2.00;;
8704;SDS011;4389;41.932;25.904;2022-11-21T10:41:46;6.83;;;2.00;;
8704;SDS011;4389;41.932;25.904;2022-11-21T10:44:22;2.70;;;1.70;;
8704;SDS011;4389;41.932;25.904;2022-11-21T10:47:15;5.93;;;1.90;;
8704;SDS011;4389;41.932;25.904;2022-11-21T10:49:52;6.90;;;3.10;;
8704;SDS011;4389;41.932;25.904;2022-11-21T10:52:30;5.63;;;2.33;;
8704;SDS011;4389;41.932;25.904;2022-11-21T10:55:07;8.47;;;5.60;;
8704;SDS011;4389;41.932;25.904;2022-11-21T10:57:38;5.30;;;1.80;;
8704;SDS011;4389;41.932;25.904;2022-11-21T11:00:18;4.37;;;1.20;;
8704;SDS011;4389;41.932;25.904;2022-11-21T11:03:00;3.87;;;1.70;;
8704;SDS011;4389;41.932;25.904;2022-11-21T11:05:30;5.13;;;2.43;;
8704;SDS011;4389;41.932;25.904;2022-11-21T11:07:59;2.27;;;1.47;;
8704;SDS011;4389;41.932;25.904;2022-11-21T11:10:28;4.40;;;1.40;;
8704;SDS011;4389;41.932;25.904;2022-11-21T11:12:56;1.83;;;1.10;;
8704;SDS011;4389;41.932;25.904;2022-11-21T11:15:51;1.60;;;1.10;;
8704;SDS011;4389;41.932;25.904;2022-11-21T11:18:22;3.40;;;1.90;;
8704;SDS011;4389;41.932;25.904;2022-11-21T11:20:49;4.30;;;1.10;;
8704;SDS011;4389;41.932;25.904;2022-11-21T11:23:22;3.37;;;1.33;;
8704;SDS011;4389;41.932;25.904;2022-11-21T11:25:51;3.77;;;1.30;;
8704;SDS011;4389;41.932;25.904;2022-11-21T11:28:19;2.97;;;1.60;;
8704;SDS011;4389;41.932;25.904;2022-11-21T11:30:48;3.30;;;2.20;;
8704;SDS011;4389;41.932;25.904;2022-11-21T11:33:30;4.50;;;2.23;;
8704;SDS011;4389;41.932;25.904;2022-11-21T11:36:03;3.07;;;1.50;;
8704;SDS011;4389;41.932;25.904;2022-11-21T11:38:38;5.83;;;1.80;;
8704;SDS011;4389;41.932;25.904;2022-11-21T11:41:11;5.27;;;3.37;;
8704;SDS011;4389;41.932;25.904;2022-11-21T11:44:15;1.43;;;1.20;;
8704;SDS011;4389;41.932;25.904;2022-11-21T11:47:10;3.20;;;1.37;;
8704;SDS011;4389;41.932;25.904;2022-11-21T11:49:58;1.90;;;1.20;;
8704;SDS011;4389;41.932;25.904;2022-11-21T11:52:39;7.43;;;1.53;;
8704;SDS011;4389;41.932;25.904;2022-11-21T11:55:14;7.50;;;3.30;;
8704;SDS011;4389;41.932;25.904;2022-11-21T11:57:49;7.70;;;3.37;;
8704;SDS011;4389;41.932;25.904;2022-11-21T12:00:23;5.27;;;2.77;;
8704;SDS011;4389;41.932;25.904;2022-11-21T12:02:55;3.53;;;2.37;;
8704;SDS011;4389;41.932;25.904;2022-11-21T12:05:29;3.70;;;1.97;;
8704;SDS011;4389;41.932;25.904;2022-11-21T12:08:06;3.40;;;1.87;;
8704;SDS011;4389;41.932;25.904;2022-11-21T12:10:42;5.10;;;2.07;;
8704;SDS011;4389;41.932;25.904;2022-11-21T12:13:36;4.73;;;1.97;;
8704;SDS011;4389;41.932;25.904;2022-11-21T12:16:05;3.67;;;1.60;;
8704;SDS011;4389;41.932;25.904;2022-11-21T12:18:39;4.23;;;1.53;;
8704;SDS011;4389;41.932;25.904;2022-11-21T12:21:17;4.17;;;2.50;;
8704;SDS011;4389;41.932;25.904;2022-11-21T12:23:46;3.30;;;1.50;;
8704;SDS011;4389;41.932;25.904;2022-11-21T12:26:17;4.87;;;2.03;;
8704;SDS011;4389;41.932;25.904;2022-11-21T12:28:55;4.63;;;1.77;;
8704;SDS011;4389;41.932;25.904;2022-11-21T12:31:31;2.60;;;1.50;;
8704;SDS011;4389;41.932;25.904;2022-11-21T12:34:13;2.53;;;1.20;;
8704;SDS011;4389;41.932;25.904;2022-11-21T12:36:50;2.60;;;1.50;;
8704;SDS011;4389;41.932;25.904;2022-11-21T12:42:23;3.77;;;1.53;;
8704;SDS011;4389;41.932;25.904;2022-11-21T12:48:04;6.27;;;1.73;;
8704;SDS011;4389;41.932;25.904;2022-11-21T12:51:01;5.63;;;1.70;;
8704;SDS011;4389;41.932;25.904;2022-11-21T12:54:00;4.30;;;1.47;;
8704;SDS011;4389;41.932;25.904;2022-11-21T12:56:55;4.47;;;2.00;;
8704;SDS011;4389;41.932;25.904;2022-11-21T12:59:29;4.47;;;2.20;;
8704;SDS011;4389;41.932;25.904;2022-11-21T13:02:02;6.70;;;1.83;;
8704;SDS011;4389;41.932;25.904;2022-11-21T13:04:44;6.37;;;2.40;;
8704;SDS011;4389;41.932;25.904;2022-11-21T13:07:15;4.43;;;2.60;;
8704;SDS011;4389;41.932;25.904;2022-11-21T13:09:47;4.90;;;3.30;;
8704;SDS011;4389;41.932;25.904;2022-11-21T13:12:20;3.63;;;2.17;;
8704;SDS011;4389;41.932;25.904;2022-11-21T13:14:54;6.33;;;2.00;;
8704;SDS011;4389;41.932;25.904;2022-11-21T13:17:35;4.33;;;1.90;;
8704;SDS011;4389;41.932;25.904;2022-11-21T13:20:13;5.90;;;2.90;;
8704;SDS011;4389;41.932;25.904;2022-11-21T13:22:48;3.73;;;3.07;;
8704;SDS011;4389;41.932;25.904;2022-11-21T13:31:01;4.00;;;1.43;;
8704;SDS011;4389;41.932;25.904;2022-11-21T13:33:49;6.27;;;3.67;;
8704;SDS011;4389;41.932;25.904;2022-11-21T13:36:33;5.43;;;2.77;;
8704;SDS011;4389;41.932;25.904;2022-11-21T13:42:03;3.57;;;2.53;;
8704;SDS011;4389;41.932;25.904;2022-11-21T13:44:48;4.10;;;2.00;;
8704;SDS011;4389;41.932;25.904;2022-11-21T13:50:12;4.43;;;2.97;;
8704;SDS011;4389;41.932;25.904;2022-11-21T13:52:46;2.50;;;2.07;;
8704;SDS011;4389;41.932;25.904;2022-11-21T13:58:33;4.10;;;2.00;;
8704;SDS011;4389;41.932;25.904;2022-11-21T14:04:20;5.93;;;2.13;;
8704;SDS011;4389;41.932;25.904;2022-11-21T14:06:55;3.83;;;1.27;;
8704;SDS011;4389;41.932;25.904;2022-11-21T14:09:47;3.23;;;1.40;;
8704;SDS011;4389;41.932;25.904;2022-11-21T14:12:18;4.10;;;1.40;;
8704;SDS011;4389;41.932;25.904;2022-11-21T14:14:50;3.97;;;2.10;;
8704;SDS011;4389;41.932;25.904;2022-11-21T14:17:26;6.43;;;2.50;;
8704;SDS011;4389;41.932;25.904;2022-11-21T14:20:06;5.77;;;1.30;;
8704;SDS011;4389;41.932;25.904;2022-11-21T14:22:39;10.57;;;4.17;;
8704;SDS011;4389;41.932;25.904;2022-11-21T14:25:12;2.17;;;1.40;;
8704;SDS011;4389;41.932;25.904;2022-11-21T14:27:44;4.97;;;2.47;;
8704;SDS011;4389;41.932;25.904;2022-11-21T14:30:25;5.07;;;3.67;;
8704;SDS011;4389;41.932;25.904;2022-11-21T14:32:54;11.00;;;4.53;;
8704;SDS011;4389;41.932;25.904;2022-11-21T14:35:22;10.00;;;6.33;;
8704;SDS011;4389;41.932;25.904;2022-11-21T14:37:49;9.93;;;5.67;;
8704;SDS011;4389;41.932;25.904;2022-11-21T14:40:19;3.63;;;2.97;;
8704;SDS011;4389;41.932;25.904;2022-11-21T14:42:47;13.37;;;4.13;;
8704;SDS011;4389;41.932;25.904;2022-11-21T14:45:15;12.93;;;5.10;;
8704;SDS011;4389;41.932;25.904;2022-11-21T14:47:48;6.87;;;3.83;;
8704;SDS011;4389;41.932;25.904;2022-11-21T14:50:22;5.97;;;3.67;;
8704;SDS011;4389;41.932;25.904;2022-11-21T14:52:55;7.57;;;4.63;;
8704;SDS011;4389;41.932;25.904;2022-11-21T14:55:26;13.70;;;4.20;;
8704;SDS011;4389;41.932;25.904;2022-11-21T14:57:54;9.27;;;4.07;;
8704;SDS011;4389;41.932;25.904;2022-11-21T15:00:24;10.00;;;5.53;;
8704;SDS011;4389;41.932;25.904;2022-11-21T15:02:54;10.63;;;5.00;;
8704;SDS011;4389;41.932;25.904;2022-11-21T15:05:27;5.63;;;3.47;;
8704;SDS011;4389;41.932;25.904;2022-11-21T15:07:55;5.20;;;3.37;;
8704;SDS011;4389;41.932;25.904;2022-11-21T15:10:27;3.97;;;3.10;;
8704;SDS011;4389;41.932;25.904;2022-11-21T15:12:59;3.93;;;2.57;;
8704;SDS011;4389;41.932;25.904;2022-11-21T15:15:29;4.47;;;1.53;;
8704;SDS011;4389;41.932;25.904;2022-11-21T15:18:00;2.00;;;1.17;;
8704;SDS011;4389;41.932;25.904;2022-11-21T15:20:28;5.50;;;3.53;;
8704;SDS011;4389;41.932;25.904;2022-11-21T15:22:57;4.63;;;1.50;;
8704;SDS011;4389;41.932;25.904;2022-11-21T15:25:25;3.47;;;1.87;;
8704;SDS011;4389;41.932;25.904;2022-11-21T15:28:05;1.83;;;1.50;;
8704;SDS011;4389;41.932;25.904;2022-11-21T15:30:34;6.50;;;2.30;;
8704;SDS011;4389;41.932;25.904;2022-11-21T15:33:07;2.33;;;1.80;;
8704;SDS011;4389;41.932;25.904;2022-11-21T15:35:51;6.47;;;2.07;;
8704;SDS011;4389;41.932;25.904;2022-11-21T15:38:26;5.93;;;3.23;;